Time;durP1;ratioP1;P1;durP2;ratioP2;P2;SDS_P1;SDS_P2;PMS_P1;PMS_P2;Temp;Humidity;BMP_temperature;BMP_pressure;BME280_temperature;BME280_humidity;BME280_pressure;Samples;Min_cycle;Max_cycle;Signal;HPM_P1;HPM_P2
2022/08/06 00:00:25;;;;;;;4.38;0.98;;;23.50;39.00;;;;;;7369402;19;20023;-81
2022/08/06 00:02:54;;;;;;;3.20;1.00;;;23.50;38.60;;;;;;7372935;19;20022;-82
2022/08/06 00:05:29;;;;;;;5.13;0.93;;;23.50;39.00;;;;;;7372742;19;20698;-82
2022/08/06 00:07:58;;;;;;;4.07;1.00;;;23.40;39.20;;;;;;7374784;19;20330;-81
2022/08/06 00:10:28;;;;;;;2.47;1.00;;;23.40;39.00;;;;;;7393755;19;20030;-80
2022/08/06 00:12:56;;;;;;;8.52;0.95;;;23.40;39.30;;;;;;7392597;19;20022;-82
2022/08/06 00:15:25;;;;;;;4.03;1.15;;;23.40;39.30;;;;;;7372271;19;20057;-82
2022/08/06 00:17:54;;;;;;;4.88;0.77;;;23.50;39.70;;;;;;7372070;19;20015;-83
2022/08/06 00:20:25;;;;;;;4.65;0.90;;;23.40;39.80;;;;;;7372485;19;20438;-82
2022/08/06 00:23:00;;;;;;;5.95;1.40;;;23.40;40.00;;;;;;7371220;19;20023;-83
2022/08/06 00:25:29;;;;;;;3.63;1.08;;;23.30;39.80;;;;;;7373271;19;20130;-81
2022/08/06 00:27:58;;;;;;;4.25;1.13;;;23.30;40.10;;;;;;7396155;19;20441;-82
2022/08/06 00:30:26;;;;;;;8.32;1.05;;;23.30;40.30;;;;;;7369051;19;20015;-82
2022/08/06 00:32:57;;;;;;;3.25;1.05;;;23.30;40.30;;;;;;7372479;19;20022;-83
2022/08/06 00:35:28;;;;;;;3.00;0.93;;;23.30;40.50;;;;;;7373366;19;20062;-82
2022/08/06 00:37:57;;;;;;;6.75;1.17;;;23.30;40.50;;;;;;7374575;19;20310;-82
2022/08/06 00:40:26;;;;;;;4.65;1.10;;;23.30;40.50;;;;;;7390646;19;20131;-82
2022/08/06 00:42:55;;;;;;;5.35;1.20;;;23.30;40.50;;;;;;7372854;19;21336;-82
2022/08/06 00:45:24;;;;;;;3.75;1.35;;;23.30;41.10;;;;;;7370609;19;20460;-82
2022/08/06 00:47:53;;;;;;;5.57;1.23;;;23.30;41.80;;;;;;7370972;19;20172;-82
2022/08/06 00:50:21;;;;;;;2.92;1.08;;;23.20;41.50;;;;;;7371812;19;20345;-82
2022/08/06 00:52:53;;;;;;;6.00;1.00;;;23.20;42.00;;;;;;7369111;19;20026;-82
2022/08/06 00:55:22;;;;;;;;;;;23.10;42.30;;;;;;7395869;19;20520;-83
2022/08/06 00:57:50;;;;;;;4.05;1.10;;;23.00;42.30;;;;;;7371230;19;19925;-82
2022/08/06 01:00:20;;;;;;;5.47;1.30;;;22.90;43.10;;;;;;7370100;19;20014;-82
2022/08/06 01:02:52;;;;;;;6.55;1.10;;;22.80;43.60;;;;;;7372028;19;20478;-82
2022/08/06 01:05:20;;;;;;;3.95;1.02;;;22.70;43.50;;;;;;7370764;19;20024;-82
2022/08/06 01:07:53;;;;;;;5.05;1.30;;;22.70;43.50;;;;;;7370897;19;20018;-82
2022/08/06 01:10:23;;;;;;;2.80;1.15;;;22.70;44.10;;;;;;7391272;19;20029;-83
2022/08/06 01:12:51;;;;;;;3.17;1.23;;;22.70;44.00;;;;;;7370427;19;20040;-82
2022/08/06 01:15:20;;;;;;;2.00;0.98;;;22.70;43.80;;;;;;7370091;19;20193;-82
2022/08/06 01:17:58;;;;;;;1.83;0.88;;;22.70;43.80;;;;;;7371892;19;20002;-82
2022/08/06 01:20:40;;;;;;;3.78;1.30;;;22.60;43.50;;;;;;7371614;19;20018;-82
2022/08/06 01:23:34;;;;;;;7.68;1.27;;;22.60;44.70;;;;;;7371876;19;20014;-82
2022/08/06 01:26:25;;;;;;;6.43;1.17;;;22.60;44.40;;;;;;7370869;19;20018;-83
2022/08/06 01:29:03;;;;;;;3.72;1.20;;;22.50;44.50;;;;;;7369861;19;20745;-83
2022/08/06 01:31:42;;;;;;;4.90;1.23;;;22.50;44.80;;;;;;7369030;19;20018;-82
2022/08/06 01:34:16;;;;;;;2.65;1.23;;;22.50;44.90;;;;;;7391032;19;20022;-82
2022/08/06 01:36:51;;;;;;;4.43;1.35;;;22.40;44.90;;;;;;7367324;19;20082;-83
2022/08/06 01:39:22;;;;;;;4.93;1.40;;;22.40;44.90;;;;;;7371344;19;20006;-82
2022/08/06 01:41:55;;;;;;;3.45;1.40;;;22.40;44.20;;;;;;7370778;19;20082;-83
2022/08/06 01:44:32;;;;;;;8.00;1.25;;;22.30;43.90;;;;;;7370890;19;20029;-82
2022/08/06 01:47:04;;;;;;;4.85;1.35;;;22.30;44.40;;;;;;7367508;19;20029;-82
2022/08/06 01:49:34;;;;;;;3.35;1.20;;;22.30;44.50;;;;;;7371192;19;20098;-82
2022/08/06 01:52:04;;;;;;;2.42;1.00;;;22.30;44.30;;;;;;7392805;19;20029;-83
2022/08/06 01:54:40;;;;;;;6.03;1.23;;;22.30;44.70;;;;;;7369977;19;20014;-82
2022/08/06 01:57:10;;;;;;;6.13;1.13;;;22.30;44.60;;;;;;7370277;19;20520;-83
2022/08/06 01:59:47;;;;;;;4.38;1.30;;;22.30;43.80;;;;;;7373976;19;20291;-83
2022/08/06 02:02:21;;;;;;;6.20;1.20;;;22.20;44.90;;;;;;7375274;19;20409;-83
2022/08/06 02:04:52;;;;;;;3.53;1.15;;;22.20;44.30;;;;;;7372613;19;20022;-82
2022/08/06 02:07:24;;;;;;;3.42;1.20;;;22.30;44.50;;;;;;7393443;19;20592;-82
2022/08/06 02:09:56;;;;;;;9.32;1.58;;;22.30;44.30;;;;;;7367724;19;20584;-81
2022/08/06 02:12:28;;;;;;;2.13;1.17;;;22.30;44.00;;;;;;7369212;19;20015;-81
2022/08/06 02:15:01;;;;;;;4.97;1.58;;;22.30;44.30;;;;;;7369776;19;20228;-82
2022/08/06 02:17:32;;;;;;;4.32;1.40;;;22.30;44.20;;;;;;7368616;19;20392;-81
2022/08/06 02:20:02;;;;;;;;;;;22.20;44.30;;;;;;7370477;19;20097;-81
2022/08/06 02:22:31;;;;;;;1.95;1.00;;;22.20;44.40;;;;;;7370710;19;19931;-81
2022/08/06 02:25:05;;;;;;;3.15;1.20;;;22.10;44.70;;;;;;7398095;19;20106;-83
2022/08/06 02:27:35;;;;;;;4.70;1.30;;;22.00;44.70;;;;;;7377318;19;20085;-81
2022/08/06 02:30:08;;;;;;;4.80;1.25;;;21.90;45.00;;;;;;7375624;19;20017;-81
2022/08/06 02:32:37;;;;;;;3.63;1.20;;;21.80;45.10;;;;;;7376922;19;20096;-81
2022/08/06 02:35:06;;;;;;;6.28;1.10;;;21.80;45.50;;;;;;7376537;19;20028;-81
2022/08/06 02:37:41;;;;;;;9.05;1.80;;;21.80;45.50;;;;;;7373565;19;20082;-81
2022/08/06 02:40:14;;;;;;;3.67;1.10;;;21.80;45.70;;;;;;7398402;19;20014;-81
2022/08/06 02:42:51;;;;;;;4.00;1.27;;;21.80;45.70;;;;;;7375360;19;20025;-82
2022/08/06 02:45:30;;;;;;;3.53;1.48;;;21.80;45.70;;;;;;7373845;19;20419;-82
2022/08/06 02:48:04;;;;;;;3.50;0.90;;;21.70;45.90;;;;;;7374703;19;20086;-82
2022/08/06 02:50:37;;;;;;;3.30;1.42;;;21.70;46.00;;;;;;7374303;19;20094;-82
2022/08/06 02:53:09;;;;;;;5.53;1.13;;;21.70;45.60;;;;;;7374483;19;20082;-81
2022/08/06 02:55:44;;;;;;;4.53;1.23;;;21.70;45.00;;;;;;7376433;19;20018;-81
2022/08/06 02:58:17;;;;;;;2.15;1.20;;;21.70;45.10;;;;;;7395762;19;20014;-82
2022/08/06 03:00:51;;;;;;;3.60;1.40;;;21.70;45.10;;;;;;7373355;19;20102;-82
2022/08/06 03:03:23;;;;;;;7.28;1.30;;;21.70;45.20;;;;;;7375261;19;20437;-82
2022/08/06 03:05:55;;;;;;;4.95;1.27;;;21.70;45.30;;;;;;7372989;19;20093;-82
2022/08/06 03:08:27;;;;;;;3.90;1.00;;;21.70;45.00;;;;;;7374981;19;20078;-82
2022/08/06 03:10:57;;;;;;;4.20;1.10;;;21.70;44.50;;;;;;7374027;19;20483;-82
2022/08/06 03:13:27;;;;;;;3.83;0.93;;;21.70;44.60;;;;;;7399888;19;20018;-82
2022/08/06 03:16:01;;;;;;;5.65;1.33;;;21.70;43.10;;;;;;7380434;19;20074;-82
2022/08/06 03:18:30;;;;;;;2.92;1.02;;;21.70;43.30;;;;;;7379564;19;20117;-82
2022/08/06 03:21:01;;;;;;;4.45;1.13;;;21.70;43.20;;;;;;7380662;19;20066;-82
2022/08/06 03:23:31;;;;;;;3.45;1.00;;;21.80;43.40;;;;;;7375695;19;20010;-81
2022/08/06 03:26:01;;;;;;;5.38;1.13;;;21.70;42.50;;;;;;7380506;19;20010;-81
2022/08/06 03:28:32;;;;;;;4.82;1.20;;;21.70;42.30;;;;;;7379405;19;20489;-80
2022/08/06 03:31:04;;;;;;;1.48;0.80;;;21.60;42.80;;;;;;7393874;19;20066;-82
2022/08/06 03:33:35;;;;;;;7.22;1.38;;;21.60;42.40;;;;;;7373629;19;20041;-82
2022/08/06 03:36:05;;;;;;;4.43;1.00;;;21.50;42.40;;;;;;7372497;19;20021;-82
2022/08/06 03:38:40;;;;;;;4.28;1.17;;;21.50;42.50;;;;;;7374905;19;20110;-82
2022/08/06 03:41:10;;;;;;;5.88;1.15;;;21.60;42.70;;;;;;7375695;19;20010;-82
2022/08/06 03:43:39;;;;;;;3.13;1.15;;;21.50;42.50;;;;;;7374323;19;20090;-82
2022/08/06 03:46:11;;;;;;;5.00;0.90;;;21.50;42.30;;;;;;7397743;19;20343;-82
2022/08/06 03:48:43;;;;;;;7.63;1.00;;;21.40;42.40;;;;;;7372305;19;20903;-82
2022/08/06 03:51:19;;;;;;;2.88;1.15;;;21.50;42.50;;;;;;7372886;19;20142;-82
2022/08/06 03:53:49;;;;;;;4.93;1.08;;;21.40;42.20;;;;;;7376483;19;20010;-82
2022/08/06 03:56:25;;;;;;;11.07;1.60;;;21.40;42.30;;;;;;7376848;19;20493;-82
2022/08/06 03:58:56;;;;;;;2.78;1.20;;;21.30;42.60;;;;;;7373054;19;20258;-82
2022/08/06 04:01:30;;;;;;;5.72;0.88;;;21.30;42.70;;;;;;7396219;19;20037;-82
2022/08/06 04:04:00;;;;;;;2.90;1.17;;;21.30;42.70;;;;;;7373595;19;20591;-82
2022/08/06 04:06:31;;;;;;;2.92;0.93;;;21.30;42.60;;;;;;7374132;19;20032;-82
2022/08/06 04:09:02;;;;;;;2.13;1.00;;;21.30;42.50;;;;;;7374967;19;20085;-82
2022/08/06 04:11:31;;;;;;;3.15;1.00;;;21.20;42.30;;;;;;7375893;19;20039;-82
2022/08/06 04:14:01;;;;;;;3.70;1.17;;;21.20;42.40;;;;;;7372038;19;20031;-81
2022/08/06 04:16:34;;;;;;;4.22;1.38;;;21.20;42.70;;;;;;7371865;19;20023;-82
2022/08/06 04:19:04;;;;;;;2.53;1.10;;;21.20;43.40;;;;;;7395559;19;20455;-82
2022/08/06 04:21:32;;;;;;;3.47;1.13;;;21.20;43.60;;;;;;7373407;19;20011;-82
2022/08/06 04:24:02;;;;;;;4.00;1.10;;;21.20;43.50;;;;;;7373456;19;20085;-82
2022/08/06 04:26:31;;;;;;;2.70;1.05;;;21.30;43.70;;;;;;7371422;19;20600;-82
2022/08/06 04:29:05;;;;;;;3.63;1.33;;;21.30;43.60;;;;;;7373259;19;20120;-80
2022/08/06 04:31:39;;;;;;;3.50;1.00;;;21.30;43.50;;;;;;7369168;19;20102;-80
2022/08/06 04:34:09;;;;;;;5.90;1.40;;;21.30;43.70;;;;;;7394118;19;20022;-81
2022/08/06 04:36:40;;;;;;;4.40;1.08;;;21.20;43.60;;;;;;7373573;19;20015;-81
2022/08/06 04:39:10;;;;;;;3.08;1.13;;;21.20;43.80;;;;;;7374077;19;20086;-81
2022/08/06 04:41:39;;;;;;;2.63;1.10;;;21.20;43.70;;;;;;7372239;19;20062;-80
2022/08/06 04:44:08;;;;;;;3.08;1.10;;;21.20;44.10;;;;;;7372090;19;20082;-80
2022/08/06 04:46:48;;;;;;;3.53;1.30;;;21.20;44.00;;;;;;7369743;19;20521;-80
2022/08/06 04:49:17;;;;;;;4.93;1.23;;;21.20;43.40;;;;;;7394586;19;20135;-81
2022/08/06 04:51:48;;;;;;;5.03;1.20;;;21.10;43.50;;;;;;7369313;19;20014;-81
2022/08/06 04:54:18;;;;;;;1.90;1.02;;;21.10;43.80;;;;;;7371599;19;20018;-81
2022/08/06 04:56:46;;;;;;;3.05;0.82;;;21.10;44.10;;;;;;7372604;19;20448;-81
2022/08/06 04:59:16;;;;;;;2.17;0.88;;;21.10;44.10;;;;;;7372041;19;20044;-82
2022/08/06 05:01:47;;;;;;;3.28;1.20;;;21.10;43.70;;;;;;7370815;19;20436;-82
2022/08/06 05:04:16;;;;;;;3.33;1.00;;;21.10;43.90;;;;;;7394115;19;20041;-82
2022/08/06 05:06:50;;;;;;;4.60;1.17;;;21.10;43.30;;;;;;7370847;19;20113;-82
2022/08/06 05:09:24;;;;;;;7.63;1.13;;;21.10;43.50;;;;;;7370761;19;20540;-83
2022/08/06 05:11:57;;;;;;;2.90;1.17;;;21.10;43.30;;;;;;7371174;19;20081;-83
2022/08/06 05:14:36;;;;;;;4.18;1.08;;;21.00;42.70;;;;;;7371216;19;20078;-82
2022/08/06 05:17:09;;;;;;;8.90;1.40;;;20.90;42.80;;;;;;7371270;19;20074;-82
2022/08/06 05:19:44;;;;;;;4.22;0.90;;;20.90;42.70;;;;;;7373510;19;20933;-82
2022/08/06 05:22:14;;;;;;;1.55;0.75;;;20.90;42.90;;;;;;7391709;19;20090;-82
2022/08/06 05:24:44;;;;;;;4.25;1.17;;;20.90;42.80;;;;;;7369025;19;20070;-82
2022/08/06 05:27:13;;;;;;;2.00;0.90;;;20.80;42.50;;;;;;7371038;19;20109;-83
2022/08/06 05:29:42;;;;;;;2.42;0.95;;;20.90;43.00;;;;;;7371083;19;20089;-83
2022/08/06 05:32:14;;;;;;;4.43;0.85;;;20.80;42.90;;;;;;7371337;19;20011;-83
2022/08/06 05:34:43;;;;;;;4.43;1.25;;;20.80;43.20;;;;;;7371897;19;20011;-82
2022/08/06 05:37:11;;;;;;;2.95;0.90;;;20.80;42.90;;;;;;7394264;19;20034;-82
2022/08/06 05:39:40;;;;;;;3.33;0.95;;;20.90;43.20;;;;;;7371005;19;20015;-81
2022/08/06 05:42:09;;;;;;;4.72;1.00;;;20.90;43.40;;;;;;7370923;19;20050;-81
2022/08/06 05:44:38;;;;;;;7.13;1.10;;;20.90;43.20;;;;;;7371274;19;20006;-82
2022/08/06 05:47:10;;;;;;;5.97;1.38;;;20.80;43.20;;;;;;7370315;19;20031;-82
2022/08/06 05:49:46;;;;;;;4.65;1.00;;;20.80;43.30;;;;;;7371683;19;20022;-82
2022/08/06 05:52:20;;;;;;;2.97;0.82;;;20.70;43.50;;;;;;7392401;19;20087;-82
2022/08/06 05:54:55;;;;;;;7.50;1.02;;;20.60;43.60;;;;;;7370836;19;20015;-82
2022/08/06 05:57:30;;;;;;;2.58;0.77;;;20.70;43.80;;;;;;7370282;19;20011;-83
2022/08/06 06:00:07;;;;;;;6.15;0.98;;;20.60;43.80;;;;;;7378595;19;20412;-83
2022/08/06 06:02:36;;;;;;;3.85;0.95;;;20.70;43.30;;;;;;7375939;19;20014;-82
2022/08/06 06:05:09;;;;;;;3.75;0.80;;;20.70;43.20;;;;;;7377462;19;20066;-82
2022/08/06 06:07:39;;;;;;;6.30;0.80;;;20.70;43.60;;;;;;7375027;19;20022;-82
2022/08/06 06:10:12;;;;;;;4.63;1.10;;;20.80;43.10;;;;;;7397383;19;20021;-83
2022/08/06 06:12:43;;;;;;;4.43;0.90;;;20.90;43.30;;;;;;7379265;19;20022;-83
2022/08/06 06:15:14;;;;;;;9.45;1.23;;;20.90;43.40;;;;;;7374428;19;20591;-83
2022/08/06 06:17:57;;;;;;;1.88;0.98;;;20.80;43.40;;;;;;7377781;19;20022;-83
2022/08/06 06:20:38;;;;;;;3.00;0.90;;;20.80;43.20;;;;;;7375860;19;20010;-83
2022/08/06 06:23:11;;;;;;;;;;;20.80;43.40;;;;;;7377453;19;20651;-83
2022/08/06 06:25:47;;;;;;;2.80;0.90;;;21.00;43.60;;;;;;7377741;19;19922;-83
2022/08/06 06:28:24;;;;;;;3.55;1.13;;;21.10;43.40;;;;;;7399406;19;20062;-83
2022/08/06 06:30:59;;;;;;;8.02;1.00;;;21.20;43.20;;;;;;7373824;19;20017;-83
2022/08/06 06:33:38;;;;;;;4.05;1.10;;;21.10;42.50;;;;;;7379687;19;20101;-87
2022/08/06 06:36:22;;;;;;;5.82;1.38;;;21.10;42.50;;;;;;7376988;19;20022;-82
2022/08/06 06:39:02;;;;;;;4.38;1.38;;;21.10;42.40;;;;;;7374513;19;20018;-83
2022/08/06 06:41:37;;;;;;;4.38;1.20;;;21.10;42.40;;;;;;7379243;19;20010;-82
2022/08/06 06:44:15;;;;;;;4.15;1.05;;;21.20;42.30;;;;;;7375033;19;20157;-82
2022/08/06 06:46:49;;;;;;;5.72;1.00;;;21.20;42.10;;;;;;7374211;19;20029;-80
2022/08/06 06:49:23;;;;;;;6.55;2.92;;;21.20;42.30;;;;;;7389866;19;20022;-83
2022/08/06 06:52:00;;;;;;;10.30;2.92;;;21.10;42.50;;;;;;7374891;19;20042;-84
2022/08/06 06:54:33;;;;;;;2.45;0.73;;;21.20;42.50;;;;;;7374711;19;20106;-84
2022/08/06 06:57:04;;;;;;;3.83;1.10;;;21.20;42.30;;;;;;7374185;19;20015;-84
2022/08/06 06:59:36;;;;;;;2.17;0.82;;;21.20;41.80;;;;;;7376007;19;20022;-84
2022/08/06 07:02:06;;;;;;;3.97;0.63;;;21.20;41.70;;;;;;7376288;19;20022;-85
2022/08/06 07:04:38;;;;;;;5.87;1.00;;;21.40;42.00;;;;;;7374276;19;20109;-82
2022/08/06 07:07:10;;;;;;;8.27;1.02;;;21.50;42.20;;;;;;7401436;19;20093;-84
2022/08/06 07:09:40;;;;;;;4.80;1.00;;;21.50;42.10;;;;;;7374886;19;20014;-85
2022/08/06 07:12:10;;;;;;;3.28;0.73;;;21.60;41.50;;;;;;7376106;19;20031;-85
2022/08/06 07:14:40;;;;;;;7.35;0.90;;;21.60;41.30;;;;;;7377027;19;20014;-85
2022/08/06 07:17:10;;;;;;;3.33;0.73;;;21.70;41.50;;;;;;7376421;19;20074;-83
2022/08/06 07:19:40;;;;;;;3.90;0.70;;;21.70;41.10;;;;;;7376030;19;20308;-83
2022/08/06 07:22:12;;;;;;;1.65;0.77;;;21.80;41.00;;;;;;7396727;19;20130;-84
2022/08/06 07:24:44;;;;;;;2.83;0.90;;;21.90;41.50;;;;;;7375249;19;20018;-84
2022/08/06 07:27:14;;;;;;;3.05;0.88;;;22.00;41.10;;;;;;7376851;19;20014;-83
2022/08/06 07:29:44;;;;;;;1.58;0.65;;;22.00;41.30;;;;;;7378006;19;20011;-84
2022/08/06 07:32:13;;;;;;;4.15;1.10;;;22.20;42.10;;;;;;7382016;19;20073;-84
2022/08/06 07:34:43;;;;;;;2.42;0.70;;;22.20;41.40;;;;;;7387066;19;20058;-83
2022/08/06 07:37:16;;;;;;;5.05;0.80;;;22.10;40.20;;;;;;7407397;19;20381;-82
2022/08/06 07:39:46;;;;;;;2.00;0.80;;;22.20;40.60;;;;;;7383410;19;20102;-83
2022/08/06 07:42:18;;;;;;;4.63;0.90;;;22.20;40.20;;;;;;7382516;19;20430;-84
2022/08/06 07:44:52;;;;;;;2.05;0.60;;;22.30;39.90;;;;;;7385483;19;20024;-90
2022/08/06 07:47:24;;;;;;;3.72;0.80;;;22.30;39.50;;;;;;7389799;19;20014;-83
2022/08/06 07:49:57;;;;;;;1.88;0.63;;;22.30;39.10;;;;;;7398109;19;20033;-83
2022/08/06 07:52:29;;;;;;;3.38;0.82;;;22.30;39.10;;;;;;7406585;19;20018;-84
2022/08/06 07:54:58;;;;;;;3.13;0.88;;;22.30;38.80;;;;;;7384558;19;20069;-83
2022/08/06 07:57:28;;;;;;;2.50;0.80;;;22.30;38.70;;;;;;7384895;19;20084;-82
2022/08/06 07:59:57;;;;;;;3.22;0.75;;;22.40;39.30;;;;;;7390071;19;20013;-84
2022/08/06 08:02:27;;;;;;;3.55;1.02;;;22.40;38.60;;;;;;7398674;19;20460;-82
2022/08/06 08:07:42;;;;;;;6.88;0.60;;;22.40;38.50;;;;;;7399288;19;20019;-83
2022/08/06 08:10:11;;;;;;;1.88;0.93;;;22.40;38.30;;;;;;7424448;19;20019;-82
2022/08/06 08:12:42;;;;;;;5.35;0.60;;;22.50;38.60;;;;;;7392646;19;20081;-85
2022/08/06 08:15:11;;;;;;;3.90;0.60;;;22.50;38.50;;;;;;7387717;19;20025;-86
2022/08/06 08:17:40;;;;;;;0.80;0.50;;;22.50;37.60;;;;;;7385217;19;20007;-85
2022/08/06 08:20:11;;;;;;;0.93;0.50;;;22.60;37.80;;;;;;7382823;19;20047;-83
2022/08/06 08:22:42;;;;;;;2.75;0.73;;;22.50;38.00;;;;;;7383903;19;20041;-83
2022/08/06 08:25:12;;;;;;;2.58;0.60;;;22.60;38.30;;;;;;7403664;19;20026;-84
2022/08/06 08:27:41;;;;;;;3.13;0.82;;;22.60;38.00;;;;;;7384906;19;20039;-82
2022/08/06 08:30:11;;;;;;;2.70;0.88;;;22.60;37.80;;;;;;7398320;19;20023;-85
2022/08/06 08:32:40;;;;;;;2.20;0.50;;;22.60;38.10;;;;;;7388304;19;20014;-84
2022/08/06 08:35:11;;;;;;;1.50;0.50;;;22.70;38.10;;;;;;7383786;19;20018;-82
2022/08/06 08:37:42;;;;;;;3.20;0.57;;;22.60;37.50;;;;;;7379185;19;20018;-84
2022/08/06 08:40:13;;;;;;;;;;;22.60;37.90;;;;;;7400599;19;20018;-83
2022/08/06 08:42:53;;;;;;;7.22;0.80;;;22.80;38.30;;;;;;7378656;19;19929;-83
2022/08/06 08:45:25;;;;;;;4.57;0.75;;;22.80;38.10;;;;;;6764162;19;20028;-82
2022/08/06 08:47:56;;;;;;;3.28;0.60;;;22.80;38.00;;;;;;7371967;19;20037;-84
2022/08/06 08:50:29;;;;;;;2.57;0.70;;;22.80;37.10;;;;;;7373712;19;20035;-83
2022/08/06 08:53:05;;;;;;;4.05;0.80;;;22.90;37.30;;;;;;7372469;19;20058;-83
2022/08/06 08:55:34;;;;;;;0.70;0.60;;;22.90;37.50;;;;;;7374159;19;20014;-84
2022/08/06 08:58:07;;;;;;;3.70;0.70;;;22.90;36.60;;;;;;7393444;19;20075;-84
2022/08/06 09:00:36;;;;;;;2.13;0.73;;;22.70;36.80;;;;;;7370592;19;20041;-84
2022/08/06 09:03:05;;;;;;;3.50;0.85;;;22.80;37.50;;;;;;7372899;19;20018;-84
2022/08/06 09:05:35;;;;;;;4.47;0.90;;;22.60;36.70;;;;;;7374109;19;20018;-85
2022/08/06 09:08:08;;;;;;;1.83;0.70;;;22.80;36.90;;;;;;7380815;19;20014;-84
2022/08/06 09:10:37;;;;;;;2.60;0.60;;;22.80;37.70;;;;;;7386605;19;20022;-84
2022/08/06 09:13:06;;;;;;;1.08;0.60;;;22.90;36.00;;;;;;7397602;19;20094;-84
2022/08/06 09:15:35;;;;;;;2.65;0.50;;;22.90;36.10;;;;;;7376258;19;20015;-84
2022/08/06 09:18:03;;;;;;;0.38;0.38;;;22.90;35.80;;;;;;7372328;19;20098;-84
2022/08/06 09:20:32;;;;;;;2.95;0.70;;;22.90;34.70;;;;;;7371098;19;20283;-84
2022/08/06 09:23:01;;;;;;;1.65;0.55;;;22.90;35.20;;;;;;7368432;19;20671;-83
2022/08/06 09:25:45;;;;;;;2.67;0.47;;;22.90;35.00;;;;;;7369006;19;20759;-83
2022/08/06 09:28:29;;;;;;;0.90;0.45;;;22.90;35.60;;;;;;7391671;19;20444;-84
2022/08/06 09:31:04;;;;;;;5.95;1.10;;;23.10;35.80;;;;;;7371769;19;20035;-84
2022/08/06 09:33:37;;;;;;;1.60;0.55;;;23.10;36.10;;;;;;7371675;19;20123;-83
2022/08/06 09:36:11;;;;;;;4.18;0.70;;;23.10;35.60;;;;;;7370178;19;20117;-85
2022/08/06 09:38:53;;;;;;;2.97;0.60;;;23.20;35.50;;;;;;7371194;19;20015;-84
2022/08/06 09:41:26;;;;;;;3.42;0.50;;;23.20;35.40;;;;;;7368622;19;20350;-84
2022/08/06 09:43:56;;;;;;;1.75;0.52;;;23.30;34.70;;;;;;7370027;19;20086;-83
2022/08/06 09:46:39;;;;;;;3.03;0.50;;;23.30;34.10;;;;;;7392817;19;20093;-83
2022/08/06 09:49:09;;;;;;;2.35;0.40;;;23.20;34.30;;;;;;7370105;19;20015;-84
2022/08/06 09:51:38;;;;;;;1.42;0.75;;;23.30;33.90;;;;;;7369457;19;20717;-84
2022/08/06 09:54:12;;;;;;;1.90;0.80;;;23.30;34.40;;;;;;7369965;19;20018;-84
2022/08/06 09:56:44;;;;;;;1.80;0.40;;;23.30;34.10;;;;;;7370399;19;20030;-84
2022/08/06 09:59:15;;;;;;;1.50;0.70;;;23.30;34.50;;;;;;7372939;19;20035;-85
2022/08/06 10:01:45;;;;;;;4.32;0.63;;;23.40;33.90;;;;;;7374405;19;20102;-85
2022/08/06 10:04:16;;;;;;;3.83;0.50;;;23.20;33.60;;;;;;7395208;19;20015;-85
2022/08/06 10:10:00;;;;;;;1.85;0.60;;;23.40;34.20;;;;;;7371591;19;20287;-84
2022/08/06 10:12:32;;;;;;;1.20;0.35;;;23.50;33.80;;;;;;7369404;19;20018;-84
2022/08/06 10:15:02;;;;;;;2.58;0.68;;;23.50;33.50;;;;;;7371212;19;20086;-84
2022/08/06 10:17:33;;;;;;;1.20;0.50;;;23.60;31.70;;;;;;7371937;19;20456;-84
2022/08/06 10:22:54;;;;;;;0.80;0.47;;;23.70;32.40;;;;;;7368485;19;19927;-86
2022/08/06 10:26:01;;;;;;;3.17;1.00;;;23.60;31.80;;;;;;7409341;19;20042;-93
2022/08/06 10:28:36;;;;;;;3.45;0.70;;;23.60;31.80;;;;;;7282949;19;2004617;-91
2022/08/06 10:31:09;;;;;;;2.40;0.55;;;23.60;32.30;;;;;;7403048;19;20006;-87
2022/08/06 10:33:43;;;;;;;2.85;0.57;;;23.80;32.60;;;;;;7371027;19;20019;-86
2022/08/06 10:36:15;;;;;;;2.35;0.60;;;23.90;31.70;;;;;;7372779;19;20078;-88
2022/08/06 10:38:56;;;;;;;4.05;0.88;;;23.90;31.90;;;;;;7371518;19;20388;-87
2022/08/06 10:41:25;;;;;;;1.30;0.70;;;24.00;32.30;;;;;;7359238;19;20065;-85
2022/08/06 10:43:57;;;;;;;4.32;0.82;;;24.00;32.60;;;;;;7371537;19;20011;-85
2022/08/06 10:46:26;;;;;;;4.38;1.30;;;24.00;31.90;;;;;;7399151;19;20014;-85
2022/08/06 10:48:57;;;;;;;3.85;1.40;;;24.10;31.90;;;;;;7377750;19;20017;-88
2022/08/06 10:51:26;;;;;;;7.35;1.70;;;24.20;31.50;;;;;;7379382;19;20023;-89
2022/08/06 10:53:56;;;;;;;4.35;1.45;;;24.20;30.60;;;;;;7379002;19;20017;-90
2022/08/06 10:56:28;;;;;;;3.50;1.45;;;24.10;31.30;;;;;;7381437;19;20027;-89
2022/08/06 10:59:00;;;;;;;2.33;1.20;;;24.10;31.40;;;;;;7382067;19;20014;-89
2022/08/06 11:01:34;;;;;;;2.97;1.67;;;24.20;31.90;;;;;;7385292;19;20433;-84
2022/08/06 11:04:20;;;;;;;5.70;1.65;;;24.30;31.30;;;;;;7405648;19;20074;-89
2022/08/06 11:07:08;;;;;;;2.75;1.50;;;24.20;31.10;;;;;;7383838;19;20312;-91
2022/08/06 11:09:56;;;;;;;3.55;1.33;;;24.00;31.10;;;;;;7382611;19;20022;-88
2022/08/06 11:12:45;;;;;;;3.05;1.42;;;24.00;31.30;;;;;;7379296;19;20019;-88
2022/08/06 11:15:17;;;;;;;2.70;1.35;;;23.90;31.90;;;;;;7380223;19;20078;-88
2022/08/06 11:17:51;;;;;;;3.38;1.50;;;24.10;31.90;;;;;;7381983;19;20090;-89
2022/08/06 11:20:40;;;;;;;2.17;1.13;;;24.30;31.70;;;;;;7381322;19;20031;-87
2022/08/06 11:23:26;;;;;;;3.95;3.00;;;24.40;31.90;;;;;;7384222;19;20010;-88
2022/08/06 11:25:56;;;;;;;3.08;2.25;;;24.40;32.00;;;;;;7382392;19;20021;-88
2022/08/06 11:28:54;;;;;;;2.00;1.50;;;24.60;31.40;;;;;;7407001;19;20035;-87
2022/08/06 11:31:41;;;;;;;4.53;1.60;;;24.70;31.10;;;;;;7283180;19;2004856;-87
2022/08/06 11:34:14;;;;;;;3.08;1.70;;;24.70;30.50;;;;;;7411217;19;20603;-87
2022/08/06 11:37:00;;;;;;;2.95;2.22;;;24.80;30.40;;;;;;7379278;19;20046;-88
2022/08/06 11:39:30;;;;;;;5.07;1.80;;;24.80;30.70;;;;;;7376795;19;20429;-88
2022/08/06 11:42:01;;;;;;;3.20;1.85;;;25.00;30.40;;;;;;7384572;19;20030;-90
2022/08/06 11:44:32;;;;;;;2.90;1.45;;;24.90;31.10;;;;;;7378586;19;20461;-90
2022/08/06 11:47:16;;;;;;;3.13;2.05;;;25.10;30.90;;;;;;7379713;19;20018;-88
2022/08/06 11:49:46;;;;;;;6.72;2.28;;;25.20;30.30;;;;;;7373850;19;20026;-87
2022/08/06 11:52:42;;;;;;;4.28;1.98;;;25.20;30.40;;;;;;7394182;19;20014;-89
2022/08/06 11:55:13;;;;;;;3.75;1.52;;;25.20;30.10;;;;;;7371423;19;20125;-88
2022/08/06 11:57:43;;;;;;;;;;;25.20;30.50;;;;;;7373560;19;20014;-87
2022/08/06 12:00:23;;;;;;;4.68;1.58;;;25.30;30.20;;;;;;7374378;19;20047;-88
2022/08/06 12:03:03;;;;;;;4.00;1.30;;;25.30;30.30;;;;;;7374131;19;20461;-88
2022/08/06 12:05:39;;;;;;;6.30;1.40;;;25.40;30.00;;;;;;7374551;19;20062;-88
2022/08/06 12:08:21;;;;;;;4.07;1.42;;;25.30;30.40;;;;;;7373810;19;20477;-88
2022/08/06 12:11:04;;;;;;;;;;;25.40;30.30;;;;;;7376438;19;20030;-88
2022/08/06 12:13:42;;;;;;;2.22;1.40;;;25.40;30.20;;;;;;7377304;19;19930;-87
2022/08/06 12:16:37;;;;;;;4.40;1.40;;;25.40;29.80;;;;;;7394887;19;20015;-88
2022/08/06 12:19:15;;;;;;;4.88;1.17;;;25.40;30.30;;;;;;7374660;19;20011;-88
2022/08/06 12:21:46;;;;;;;2.38;1.30;;;25.50;30.30;;;;;;7373075;19;20094;-87
2022/08/06 12:24:16;;;;;;;3.45;1.50;;;25.40;29.90;;;;;;7373346;19;20063;-88
2022/08/06 12:26:49;;;;;;;7.18;1.65;;;25.50;30.00;;;;;;7370752;19;20029;-87
2022/08/06 12:29:17;;;;;;;2.83;1.52;;;25.60;29.40;;;;;;7371412;19;21917;-87
2022/08/06 12:31:46;;;;;;;3.10;1.40;;;25.60;29.70;;;;;;7371748;19;20103;-87
2022/08/06 12:34:27;;;;;;;1.95;1.45;;;25.70;29.90;;;;;;7390405;19;20058;-87
2022/08/06 12:36:56;;;;;;;8.43;1.87;;;25.80;29.90;;;;;;7374465;19;20553;-87
2022/08/06 12:40:23;;;;;;;3.97;1.40;;;25.90;30.00;;;;;;7373887;19;20015;-87
2022/08/06 12:42:27;;;;;;;2.50;1.50;;;25.90;30.00;;;;;;7375163;19;20037;-86
2022/08/06 12:44:56;;;;;;;;;;;25.90;30.30;;;;;;7374608;19;20103;-88
2022/08/06 12:47:25;;;;;;;1.55;1.45;;;26.00;30.30;;;;;;7374147;19;19974;-88
2022/08/06 12:50:00;;;;;;;2.58;1.20;;;26.10;30.50;;;;;;7372384;19;20018;-87
2022/08/06 12:52:29;;;;;;;3.55;1.35;;;26.10;29.60;;;;;;7374651;19;20130;-85
2022/08/06 12:54:58;;;;;;;9.77;1.60;;;26.10;29.90;;;;;;7394116;19;20740;-88
2022/08/06 12:57:31;;;;;;;7.55;1.30;;;26.20;30.00;;;;;;7372088;19;20131;-87
2022/08/06 13:00:00;;;;;;;5.07;1.35;;;26.30;30.10;;;;;;7370247;19;20014;-85
2022/08/06 13:02:29;;;;;;;4.57;1.25;;;26.30;29.90;;;;;;7371056;19;20096;-86
2022/08/06 13:05:01;;;;;;;3.97;1.20;;;26.30;29.30;;;;;;7373713;19;20031;-86
2022/08/06 13:07:30;;;;;;;3.88;1.40;;;26.10;29.00;;;;;;7373804;19;20019;-87
2022/08/06 13:09:58;;;;;;;3.33;1.20;;;26.10;30.60;;;;;;7395847;19;20023;-87
2022/08/06 13:12:27;;;;;;;3.03;1.40;;;26.10;30.00;;;;;;7374784;19;20083;-88
2022/08/06 13:14:59;;;;;;;2.42;1.25;;;26.20;30.00;;;;;;7374180;19;20089;-87
2022/08/06 13:17:28;;;;;;;2.05;1.17;;;26.30;30.00;;;;;;7373931;19;20015;-87
2022/08/06 13:20:01;;;;;;;4.40;0.93;;;26.40;29.70;;;;;;7374532;19;20015;-87
2022/08/06 13:22:30;;;;;;;7.93;1.25;;;26.40;28.90;;;;;;7375323;19;20021;-87
2022/08/06 13:25:12;;;;;;;2.22;1.02;;;26.30;29.10;;;;;;7393981;19;20032;-87